Time;durP1;ratioP1;P1;durP2;ratioP2;P2;SDS_P1;SDS_P2;PMS_P1;PMS_P2;Temp;Humidity;BMP_temperature;BMP_pressure;BME280_temperature;BME280_humidity;BME280_pressure;Samples;Min_cycle;Max_cycle;Signal;HPM_P1;HPM_P2
2021/12/10 00:00:19;;;;;;;24.80;4.90;;;;;;;8.28;100.00;99830.69;5053742;28;20442;-75
2021/12/10 00:02:46;;;;;;;30.05;6.50;;;;;;;9.01;100.00;99868.41;5053756;28;20037;-75
2021/12/10 00:05:16;;;;;;;24.08;4.95;;;;;;;9.14;100.00;99879.97;5053605;28;20037;-77
2021/12/10 00:07:44;;;;;;;23.92;5.88;;;;;;;9.02;100.00;99834.13;5053500;28;20068;-77
2021/12/10 00:10:16;;;;;;;24.33;5.00;;;;;;;9.31;100.00;99867.66;5053741;28;20044;-77
2021/12/10 00:12:49;;;;;;;22.30;6.03;;;;;;;9.19;100.00;99854.38;5053606;28;20028;-77
2021/12/10 00:15:15;;;;;;;31.83;5.40;;;;;;;9.35;100.00;99863.50;5053424;28;20072;-77
2021/12/10 00:17:42;;;;;;;14.80;4.40;;;;;;;9.49;100.00;99849.31;5053837;28;20406;-78
2021/12/10 00:20:10;;;;;;;15.98;3.30;;;;;;;9.68;100.00;99857.63;5053322;28;20035;-78
2021/12/10 00:22:41;;;;;;;19.77;3.38;;;;;;;9.81;100.00;99858.91;5053639;28;20036;-76
2021/12/10 00:25:18;;;;;;;13.82;3.28;;;;;;;9.95;100.00;99856.72;5003690;28;20561;-72
2021/12/10 00:27:46;;;;;;;15.73;3.42;;;;;;;9.98;100.00;99855.09;5053287;28;20095;-77
2021/12/10 00:30:19;;;;;;;13.52;2.80;;;;;;;10.01;100.00;99841.44;5036699;28;20040;-78
2021/12/10 00:32:57;;;;;;;12.55;3.00;;;;;;;10.30;100.00;99864.59;5032812;28;20522;-79
2021/12/10 00:35:27;;;;;;;18.80;4.07;;;;;;;10.34;100.00;99843.19;5001075;28;20037;-80
2021/12/10 00:37:53;;;;;;;12.32;3.30;;;;;;;10.32;100.00;99842.31;5049716;28;20033;-77
2021/12/10 00:40:20;;;;;;;19.30;3.00;;;;;;;10.28;100.00;99832.72;5050291;28;20130;-78
2021/12/10 00:42:46;;;;;;;17.05;3.83;;;;;;;10.33;100.00;99854.34;5039614;28;20025;-77
2021/12/10 00:45:14;;;;;;;11.73;2.50;;;;;;;10.28;100.00;99853.34;5034111;28;20048;-78
2021/12/10 00:47:40;;;;;;;14.65;2.92;;;;;;;10.11;100.00;99838.28;5052710;28;20118;-77
2021/12/10 00:50:09;;;;;;;15.82;3.47;;;;;;;10.23;100.00;99847.19;5052321;28;20096;-77
2021/12/10 00:52:35;;;;;;;24.52;4.78;;;;;;;10.09;100.00;99816.72;5051978;28;20487;-78
2021/12/10 00:55:01;;;;;;;16.67;4.03;;;;;;;10.16;100.00;99834.13;5051733;28;20437;-78
2021/12/10 00:57:26;;;;;;;19.10;3.83;;;;;;;10.01;100.00;99813.06;5033909;28;20013;-77
2021/12/10 00:59:52;;;;;;;16.30;3.03;;;;;;;10.01;100.00;99813.91;5051676;28;20025;-77
2021/12/10 01:02:24;;;;;;;17.75;3.78;;;;;;;10.06;100.00;99805.47;5033928;28;20029;-77
2021/12/10 01:04:54;;;;;;;14.43;3.28;;;;;;;10.04;100.00;99783.09;5051849;28;20475;-76
2021/12/10 01:07:24;;;;;;;15.10;2.95;;;;;;;10.31;100.00;99819.91;5033737;28;20040;-74
2021/12/10 01:09:52;;;;;;;19.25;3.72;;;;;;;10.42;100.00;99812.47;5051555;28;20029;-77
2021/12/10 01:12:26;;;;;;;12.43;3.00;;;;;;;10.52;100.00;99802.44;5051506;28;20071;-77
2021/12/10 01:26:53;;;;;;;15.27;3.22;;;;;;;10.75;100.00;99790.97;5050768;28;20036;-83
2021/12/10 01:28:59;;;;;;;19.52;3.53;;;;;;;10.65;100.00;99771.78;5046250;28;20552;-80
2021/12/10 01:31:25;;;;;;;18.27;3.33;;;;;;;10.54;100.00;99737.09;5050442;28;20025;-83
2021/12/10 01:33:52;;;;;;;13.32;3.30;;;;;;;10.66;100.00;99760.63;5050049;28;20036;-74
2021/12/10 01:36:20;;;;;;;14.25;3.60;;;;;;;10.49;100.00;99766.25;5050249;28;20450;-77
2021/12/10 01:38:50;;;;;;;14.38;3.47;;;;;;;10.35;100.00;99758.13;5032706;28;20509;-80
2021/12/10 01:41:17;;;;;;;;;;;;;;;10.35;100.00;99752.97;5033042;28;20461;-80
2021/12/10 01:43:44;;;;;;;15.63;3.58;;;;;;;10.19;100.00;99749.09;5050870;28;19916;-80
2021/12/10 01:46:19;;;;;;;17.00;3.80;;;;;;;10.23;100.00;99755.22;5033003;28;20021;-80
2021/12/10 01:48:51;;;;;;;13.38;3.53;;;;;;;10.11;100.00;99742.84;5051117;28;20028;-81
2021/12/10 01:51:23;;;;;;;20.13;3.92;;;;;;;10.22;100.00;99742.25;5031864;28;20028;-80
2021/12/10 01:53:53;;;;;;;13.90;4.15;;;;;;;10.26;100.00;99737.22;5032792;28;20060;-79
2021/12/10 01:56:24;;;;;;;13.70;3.25;;;;;;;10.24;100.00;99725.97;5051068;28;20103;-80
2021/12/10 01:58:50;;;;;;;15.15;3.30;;;;;;;10.34;100.00;99734.84;5032747;28;20040;-80
2021/12/10 02:01:35;;;;;;;12.48;3.40;;;;;;;10.26;100.00;99710.56;5050564;28;20090;-80
2021/12/10 02:04:04;;;;;;;13.98;4.20;;;;;;;10.34;100.00;99711.63;5032735;28;20033;-81
2021/12/10 02:06:30;;;;;;;13.65;3.30;;;;;;;10.38;100.00;99717.75;5050437;28;20032;-77
2021/12/10 02:08:56;;;;;;;13.35;3.03;;;;;;;10.49;100.00;99717.22;5041037;28;20419;-79
2021/12/10 02:11:22;;;;;;;8.95;3.28;;;;;;;10.56;100.00;99719.94;5031321;28;20026;-79
2021/12/10 02:13:49;;;;;;;12.00;4.22;;;;;;;10.43;100.00;99695.53;5029843;28;20407;-80
2021/12/10 02:16:15;;;;;;;16.15;3.92;;;;;;;10.51;100.00;99706.94;5031668;28;20029;-74
2021/12/10 02:18:41;;;;;;;14.80;4.75;;;;;;;10.31;100.00;99673.72;5031316;28;20405;-78
2021/12/10 02:21:07;;;;;;;14.30;4.30;;;;;;;10.59;100.00;99714.84;5030931;28;20029;-79
2021/12/10 02:23:40;;;;;;;12.45;4.40;;;;;;;10.61;100.00;99706.31;5031254;28;20032;-77
2021/12/10 02:26:10;;;;;;;11.65;4.88;;;;;;;10.48;100.00;99671.59;5031436;28;20018;-78
2021/12/10 02:28:37;;;;;;;11.90;4.22;;;;;;;10.88;100.00;99717.25;5043374;28;20021;-79
2021/12/10 02:31:04;;;;;;;23.63;5.65;;;;;;;10.97;100.00;99717.50;5050992;28;20040;-77
2021/12/10 02:33:30;;;;;;;8.88;4.03;;;;;;;10.87;100.00;99692.28;4999511;28;20039;-81
2021/12/10 02:35:56;;;;;;;21.98;5.45;;;;;;;10.98;100.00;99691.69;5050421;28;20037;-77
2021/12/10 02:38:23;;;;;;;9.82;3.95;;;;;;;10.88;100.00;99666.50;5044039;28;20504;-78
2021/12/10 02:40:50;;;;;;;15.43;5.65;;;;;;;11.17;100.00;99708.47;5044978;28;20029;-80
2021/12/10 02:43:19;;;;;;;11.48;5.35;;;;;;;11.28;100.00;99713.00;5048913;28;20119;-78
2021/12/10 02:45:49;;;;;;;11.73;5.00;;;;;;;11.31;100.00;99710.47;5044239;28;20541;-78
2021/12/10 02:48:15;;;;;;;8.23;4.00;;;;;;;11.06;100.00;99660.00;5049955;28;20079;-83
2021/12/10 02:50:43;;;;;;;11.30;4.40;;;;;;;11.30;100.00;99695.81;5032987;28;20036;-78
2021/12/10 02:53:10;;;;;;;16.30;6.10;;;;;;;11.27;100.00;99675.09;5015341;28;20036;-82
2021/12/10 02:55:37;;;;;;;14.70;5.10;;;;;;;11.21;100.00;99664.63;5051138;28;20029;-85
2021/12/10 02:58:07;;;;;;;14.73;5.53;;;;;;;11.29;100.00;99674.28;5050591;28;20036;-78
2021/12/10 03:00:40;;;;;;;12.95;5.55;;;;;;;11.37;100.00;99692.53;5050667;28;20025;-80
2021/12/10 03:03:06;;;;;;;14.77;5.45;;;;;;;11.31;100.00;99688.13;5050552;28;20033;-80
2021/12/10 03:05:31;;;;;;;10.32;5.95;;;;;;;11.38;100.00;99672.75;5050766;28;20059;-79
2021/12/10 03:07:57;;;;;;;13.15;5.82;;;;;;;11.33;100.00;99664.88;5050414;28;20063;-80
2021/12/10 03:10:29;;;;;;;10.95;4.80;;;;;;;11.21;100.00;99631.03;5050653;28;20108;-80
2021/12/10 03:12:55;;;;;;;11.43;5.07;;;;;;;11.36;100.00;99658.91;5050734;28;20038;-80
2021/12/10 03:15:24;;;;;;;12.82;4.10;;;;;;;11.41;100.00;99665.03;5032354;28;20078;-84
2021/12/10 03:17:50;;;;;;;12.25;4.53;;;;;;;11.46;100.00;99651.38;5050726;28;20020;-78
2021/12/10 03:20:19;;;;;;;11.85;4.28;;;;;;;11.55;100.00;99670.47;5050420;28;20029;-78
2021/12/10 03:22:45;;;;;;;15.48;4.78;;;;;;;11.51;100.00;99650.59;5051055;28;20029;-79
2021/12/10 03:25:13;;;;;;;10.05;4.63;;;;;;;11.48;100.00;99651.41;5032567;28;20036;-78
2021/12/10 03:27:39;;;;;;;11.35;4.85;;;;;;;11.38;100.00;99629.66;5032310;28;20033;-79
2021/12/10 03:30:09;;;;;;;8.77;4.35;;;;;;;11.41;100.00;99642.63;5050688;28;20032;-79
2021/12/10 03:32:37;;;;;;;11.07;4.15;;;;;;;11.45;100.00;99644.47;5050265;28;20025;-77
2021/12/10 03:35:14;;;;;;;11.50;4.85;;;;;;;11.52;100.00;99663.53;5050244;28;20519;-78
2021/12/10 03:37:45;;;;;;;7.88;4.30;;;;;;;11.49;100.00;99625.56;5050417;28;20112;-75
2021/12/10 03:40:15;;;;;;;12.75;5.55;;;;;;;11.47;100.00;99660.00;5050042;28;20029;-77
2021/12/10 03:42:41;;;;;;;10.98;4.65;;;;;;;11.51;100.00;99642.84;5050195;28;20443;-76
2021/12/10 03:45:10;;;;;;;12.98;4.63;;;;;;;11.55;100.00;99642.94;5050271;28;20029;-76
2021/12/10 03:47:36;;;;;;;13.50;5.63;;;;;;;11.51;100.00;99629.91;5050377;28;20033;-78
2021/12/10 03:50:04;;;;;;;17.38;5.53;;;;;;;11.51;100.00;99627.31;5050509;28;20048;-75
2021/12/10 03:52:30;;;;;;;8.43;3.80;;;;;;;11.60;100.00;99632.66;5050014;28;20482;-78
2021/12/10 03:54:58;;;;;;;11.02;4.22;;;;;;;11.65;100.00;99625.84;5049924;28;20029;-77
2021/12/10 03:57:23;;;;;;;13.32;4.05;;;;;;;11.46;100.00;99589.34;5032243;28;20037;-76
2021/12/10 03:59:49;;;;;;;14.55;5.00;;;;;;;11.70;100.00;99623.38;5050096;28;20025;-79
2021/12/10 04:02:15;;;;;;;17.67;6.43;;;;;;;11.77;100.00;99633.84;5050238;28;20132;-77
2021/12/10 04:04:44;;;;;;;10.13;3.65;;;;;;;11.84;100.00;99641.72;5050117;28;20430;-79
2021/12/10 04:07:20;;;;;;;11.52;4.15;;;;;;;11.77;100.00;99631.25;5050012;28;20267;-77
2021/12/10 04:09:46;;;;;;;10.40;3.78;;;;;;;11.82;100.00;99627.06;5049832;28;20041;-77
2021/12/10 04:12:12;;;;;;;23.35;5.32;;;;;;;11.76;100.00;99629.53;5050038;28;20079;-77
2021/12/10 04:14:40;;;;;;;16.08;4.57;;;;;;;11.76;100.00;99634.72;5052018;28;20025;-77
2021/12/10 04:17:06;;;;;;;12.43;3.75;;;;;;;11.77;100.00;99640.75;5053497;28;20028;-78
2021/12/10 04:19:33;;;;;;;15.32;3.83;;;;;;;11.79;100.00;99621.81;5035885;28;20024;-77
2021/12/10 04:22:03;;;;;;;9.63;2.92;;;;;;;11.93;100.00;99647.94;5035946;28;20032;-78
2021/12/10 04:24:33;;;;;;;9.77;3.05;;;;;;;11.96;100.00;99621.28;5053649;28;20111;-75
2021/12/10 04:26:59;;;;;;;10.82;3.10;;;;;;;11.78;100.00;99608.88;5053486;28;20033;-75
2021/12/10 04:29:25;;;;;;;13.55;3.85;;;;;;;12.02;100.00;99643.81;5035593;28;20036;-75
2021/12/10 04:31:53;;;;;;;13.23;3.88;;;;;;;11.81;100.00;99617.56;5035428;28;20410;-78
2021/12/10 04:34:21;;;;;;;11.30;4.03;;;;;;;11.93;100.00;99627.25;5011024;28;20603;-77
2021/12/10 04:36:48;;;;;;;12.52;3.65;;;;;;;11.80;100.00;99626.16;5011141;28;20546;-76
2021/12/10 04:39:14;;;;;;;17.70;3.22;;;;;;;11.87;100.00;99615.94;5010908;28;20044;-78
2021/12/10 04:41:39;;;;;;;17.10;3.88;;;;;;;11.93;100.00;99616.03;4999707;28;20448;-78
2021/12/10 04:44:05;;;;;;;16.35;4.25;;;;;;;11.91;100.00;99618.59;4991455;28;20045;-80
2021/12/10 04:46:32;;;;;;;17.15;4.18;;;;;;;11.91;100.00;99608.25;4992492;28;20049;-77
2021/12/10 04:49:02;;;;;;;8.52;4.10;;;;;;;11.94;100.00;99622.97;5010554;28;20042;-75
2021/12/10 04:51:39;;;;;;;11.93;3.08;;;;;;;12.05;100.00;99600.75;5011012;28;20030;-77
2021/12/10 04:54:07;;;;;;;11.32;3.25;;;;;;;12.14;100.00;99613.84;5011071;28;20117;-79
2021/12/10 04:56:37;;;;;;;15.85;3.80;;;;;;;12.04;100.00;99600.75;5010351;28;20034;-74
2021/12/10 04:59:03;;;;;;;;;;;;;;;12.04;100.00;99614.53;5011363;28;20029;-74
2021/12/10 05:01:29;;;;;;;14.05;4.10;;;;;;;12.01;100.00;99619.66;5010709;28;19913;-74
2021/12/10 05:03:55;;;;;;;12.32;3.75;;;;;;;12.01;100.00;99619.66;5010764;28;20038;-77
2021/12/10 05:06:21;;;;;;;19.83;3.60;;;;;;;11.93;100.00;99609.13;5049545;28;20033;-80
2021/12/10 05:08:47;;;;;;;19.42;3.85;;;;;;;12.05;100.00;99620.56;5052752;28;20470;-81
2021/12/10 05:11:13;;;;;;;13.27;3.85;;;;;;;11.93;100.00;99610.88;5052496;28;20522;-77
2021/12/10 05:13:42;;;;;;;13.18;4.25;;;;;;;11.87;100.00;99616.78;5052425;28;20029;-81
2021/12/10 05:16:09;;;;;;;15.75;3.70;;;;;;;11.76;100.00;99576.94;5052490;28;20032;-77
2021/12/10 05:18:39;;;;;;;20.15;4.47;;;;;;;11.99;100.00;99616.19;5037363;28;20030;-76
2021/12/10 05:21:06;;;;;;;15.80;3.92;;;;;;;11.94;100.00;99616.06;5031466;28;20041;-75
2021/12/10 05:23:32;;;;;;;13.98;4.35;;;;;;;12.04;100.00;99624.88;5032581;28;20025;-78
2021/12/10 05:25:58;;;;;;;17.20;4.50;;;;;;;12.07;100.00;99640.44;5027038;28;20091;-78
2021/12/10 05:28:24;;;;;;;14.30;3.92;;;;;;;11.91;100.00;99623.78;5032422;28;20032;-76
2021/12/10 05:30:54;;;;;;;10.18;3.17;;;;;;;11.96;100.00;99634.22;5034447;28;20065;-79
2021/12/10 05:33:20;;;;;;;12.85;3.00;;;;;;;11.97;100.00;99631.69;5043810;28;20029;-75
2021/12/10 05:35:47;;;;;;;17.63;4.22;;;;;;;11.98;100.00;99633.41;5032371;28;20040;-76
2021/12/10 05:38:14;;;;;;;10.20;3.22;;;;;;;11.97;100.00;99646.31;5032388;28;20025;-78
2021/12/10 05:40:40;;;;;;;14.73;4.03;;;;;;;11.92;100.00;99635.84;5032088;28;20030;-78
2021/12/10 05:43:06;;;;;;;16.42;4.30;;;;;;;11.88;100.00;99634.06;5034909;28;20040;-81
2021/12/10 05:45:31;;;;;;;14.05;3.85;;;;;;;11.68;100.00;99604.38;5032508;28;20044;-80
2021/12/10 05:48:06;;;;;;;15.15;3.53;;;;;;;11.99;100.00;99652.41;5030933;28;20511;-79
2021/12/10 05:50:35;;;;;;;16.25;4.65;;;;;;;11.62;100.00;99577.56;5032111;28;20034;-80
2021/12/10 05:53:01;;;;;;;15.48;3.95;;;;;;;11.96;100.00;99631.63;5030639;28;20030;-78
2021/12/10 05:55:27;;;;;;;12.20;3.08;;;;;;;11.87;100.00;99615.94;5031896;28;20041;-79
2021/12/10 05:57:53;;;;;;;12.52;3.50;;;;;;;12.02;100.00;99644.69;5031584;28;20071;-83
2021/12/10 06:00:42;;;;;;;25.63;4.78;;;;;;;12.06;100.00;99653.38;5028045;28;20032;-83
2021/12/10 06:03:08;;;;;;;18.77;4.25;;;;;;;11.92;100.00;99645.34;4965033;28;20047;-83
2021/12/10 06:05:34;;;;;;;21.27;4.45;;;;;;;12.01;100.00;99661.03;4961759;28;20042;-81
2021/12/10 06:08:01;;;;;;;20.63;3.20;;;;;;;12.11;100.00;99655.19;4981904;28;20081;-79
2021/12/10 06:10:28;;;;;;;22.63;4.28;;;;;;;12.23;100.00;99656.25;4970075;28;20028;-78
2021/12/10 06:12:54;;;;;;;18.20;3.75;;;;;;;12.30;100.00;99652.94;4970063;28;20038;-81
2021/12/10 06:15:22;;;;;;;15.90;3.35;;;;;;;12.21;100.00;99651.06;4970058;28;20049;-80
2021/12/10 06:17:49;;;;;;;20.45;4.53;;;;;;;12.19;100.00;99647.56;4953887;28;20118;-79
2021/12/10 06:20:19;;;;;;;17.58;4.00;;;;;;;12.05;100.00;99642.16;4971850;28;20530;-78
2021/12/10 06:22:45;;;;;;;19.88;5.15;;;;;;;12.00;100.00;99637.72;4971827;28;20037;-79
2021/12/10 06:25:12;;;;;;;15.93;3.08;;;;;;;12.05;100.00;99649.03;4969276;28;20517;-78
2021/12/10 06:27:44;;;;;;;14.68;3.50;;;;;;;12.13;100.00;99650.91;4969590;28;20030;-78
2021/12/10 06:30:13;;;;;;;26.67;5.70;;;;;;;12.17;100.00;99641.47;4969417;28;20410;-78
2021/12/10 06:32:39;;;;;;;16.95;4.53;;;;;;;12.21;100.00;99638.13;4969672;28;20481;-78
2021/12/10 06:35:04;;;;;;;18.05;3.70;;;;;;;12.17;100.00;99636.31;4969277;28;20030;-78
2021/12/10 06:37:30;;;;;;;18.63;3.65;;;;;;;12.20;100.00;99636.38;4968741;28;20074;-78
2021/12/10 06:39:55;;;;;;;20.85;4.80;;;;;;;12.22;100.00;99636.41;4998405;28;20044;-78
2021/12/10 06:42:21;;;;;;;17.40;4.47;;;;;;;12.25;100.00;99619.22;5024451;28;20033;-79
2021/12/10 06:44:46;;;;;;;21.65;4.32;;;;;;;12.21;100.00;99608.78;5021783;28;20025;-79
2021/12/10 06:47:12;;;;;;;20.13;4.63;;;;;;;12.20;100.00;99607.91;5035481;28;20029;-80
2021/12/10 06:49:37;;;;;;;20.48;4.15;;;;;;;12.26;100.00;99641.66;5042145;28;20106;-80
2021/12/10 06:52:03;;;;;;;19.65;4.22;;;;;;;11.95;100.00;99593.63;5000847;28;20042;-80
2021/12/10 06:54:29;;;;;;;20.70;5.20;;;;;;;12.14;100.00;99642.31;5000850;28;20444;-80
2021/12/10 06:56:56;;;;;;;29.20;4.95;;;;;;;12.35;100.00;99635.75;5001391;28;20045;-81
2021/12/10 06:59:25;;;;;;;18.42;4.13;;;;;;;12.40;100.00;99656.53;4969037;28;20094;-81
2021/12/10 07:01:51;;;;;;;24.10;4.80;;;;;;;12.35;100.00;99653.88;4968041;28;20046;-81
2021/12/10 07:04:16;;;;;;;23.35;4.45;;;;;;;12.36;100.00;99653.03;4968591;28;20065;-82
2021/12/10 07:06:44;;;;;;;15.88;3.92;;;;;;;12.34;100.00;99618.47;4968136;28;20038;-82
2021/12/10 07:09:22;;;;;;;19.92;3.85;;;;;;;12.37;100.00;99615.06;4968852;28;20644;-84
2021/12/10 07:11:51;;;;;;;21.02;4.20;;;;;;;12.65;100.00;99642.25;4968372;28;20030;-84
2021/12/10 07:14:17;;;;;;;16.70;6.03;;;;;;;12.71;100.00;99633.69;4953066;28;20049;-83
2021/12/10 07:16:43;;;;;;;17.75;3.78;;;;;;;12.74;100.00;99632.03;4953810;28;20461;-84
2021/12/10 07:19:09;;;;;;;11.48;3.38;;;;;;;12.79;100.00;99630.38;4953501;28;20042;-82
2021/12/10 07:21:36;;;;;;;13.63;2.75;;;;;;;13.11;100.00;99619.59;4969820;28;20042;-82
2021/12/10 07:24:07;;;;;;;14.95;3.45;;;;;;;13.27;100.00;99617.16;4969737;28;20039;-82
2021/12/10 07:26:34;;;;;;;11.80;3.05;;;;;;;13.27;100.00;99589.53;4969746;28;20062;-82
2021/12/10 07:29:00;;;;;;;14.52;3.78;;;;;;;13.17;100.00;99579.03;4981276;28;20472;-83
2021/12/10 07:31:27;;;;;;;17.67;3.45;;;;;;;13.01;100.00;99572.78;5027953;28;20056;-83
2021/12/10 07:33:54;;;;;;;15.52;4.35;;;;;;;13.23;100.00;99589.47;5020347;28;20041;-89
2021/12/10 07:36:21;;;;;;;27.77;4.50;;;;;;;13.15;100.00;99579.03;5031376;28;20025;-83
2021/12/10 07:38:50;;;;;;;18.45;4.10;;;;;;;13.26;100.00;99600.75;5025794;28;20463;-82
2021/12/10 07:41:15;;;;;;;14.98;2.60;;;;;;;13.17;100.00;99598.06;5020772;28;20407;-83
2021/12/10 07:43:41;;;;;;;15.38;2.83;;;;;;;13.48;100.00;99607.94;5024171;28;20104;-82
2021/12/10 07:46:07;;;;;;;20.13;3.58;;;;;;;13.19;100.00;99579.94;5020979;28;20076;-82
2021/12/10 07:48:35;;;;;;;15.32;3.38;;;;;;;13.24;100.00;99609.38;5049997;28;20068;-83
2021/12/10 07:51:15;;;;;;;34.42;5.82;;;;;;;12.95;100.00;99615.06;5054247;28;20029;-83
2021/12/10 07:53:42;;;;;;;29.98;5.65;;;;;;;13.01;100.00;99651.41;5051652;28;20035;-78
2021/12/10 07:56:09;;;;;;;28.92;5.15;;;;;;;12.69;100.00;99677.72;5034072;28;20785;-79
2021/12/10 07:58:37;;;;;;;37.58;6.90;;;;;;;12.67;100.00;99671.63;5043644;28;20557;-77
2021/12/10 08:01:09;;;;;;;26.80;5.25;;;;;;;12.15;100.00;99674.25;5032963;28;20034;-78
2021/12/10 08:03:35;;;;;;;39.42;8.55;;;;;;;11.77;100.00;99669.19;5022682;28;20033;-76
2021/12/10 08:06:00;;;;;;;30.90;7.72;;;;;;;11.74;100.00;99688.09;5034033;28;20407;-79
2021/12/10 08:08:26;;;;;;;29.02;7.10;;;;;;;11.44;100.00;99667.66;5028769;28;20158;-79
2021/12/10 08:10:51;;;;;;;39.20;8.45;;;;;;;11.51;100.00;99671.28;5033323;28;20029;-83
2021/12/10 08:13:22;;;;;;;35.42;8.35;;;;;;;11.80;100.00;99708.91;5033349;28;20423;-82
2021/12/10 08:15:48;;;;;;;27.58;5.90;;;;;;;11.79;100.00;99712.34;5033969;28;20052;-85
2021/12/10 08:18:14;;;;;;;31.67;6.40;;;;;;;11.81;100.00;99715.84;5034441;28;20025;-82
2021/12/10 08:20:40;;;;;;;21.65;4.13;;;;;;;11.07;100.00;99592.88;5034048;28;20029;-82
2021/12/10 08:23:07;;;;;;;14.30;2.72;;;;;;;11.62;100.00;99696.47;5033863;28;20029;-85
2021/12/10 08:25:33;;;;;;;12.27;2.28;;;;;;;11.64;100.00;99707.72;4999336;28;20084;-86
2021/12/10 08:28:00;;;;;;;11.07;1.98;;;;;;;11.68;100.00;99700.91;5033305;28;20021;-83
2021/12/10 08:30:28;;;;;;;10.70;2.00;;;;;;;11.59;100.00;99672.28;5024329;28;20029;-84
2021/12/10 08:32:55;;;;;;;6.28;1.30;;;;;;;11.66;100.00;99702.59;5031153;28;20033;-85
2021/12/10 08:35:26;;;;;;;12.45;2.28;;;;;;;11.60;100.00;99699.88;5029925;28;20498;-82
2021/12/10 08:37:53;;;;;;;9.88;1.65;;;;;;;11.56;100.00;99701.53;5032252;28;20036;-83
2021/12/10 08:40:22;;;;;;;7.63;1.50;;;;;;;11.51;100.00;99713.47;5030544;28;20056;-83
2021/12/10 08:42:50;;;;;;;6.03;1.30;;;;;;;11.40;100.00;99692.59;5032242;28;20108;-79
2021/12/10 08:45:16;;;;;;;7.25;1.35;;;;;;;11.29;100.00;99684.63;5032051;28;20037;-81
2021/12/10 08:47:41;;;;;;;10.50;1.80;;;;;;;11.26;100.00;99700.03;5031200;28;20541;-81
2021/12/10 08:50:08;;;;;;;10.23;2.25;;;;;;;11.22;100.00;99692.22;5028464;28;20022;-82
2021/12/10 08:52:34;;;;;;;6.78;1.92;;;;;;;11.17;100.00;99702.44;5031929;28;20033;-87
2021/12/10 08:55:00;;;;;;;9.57;2.45;;;;;;;10.98;100.00;99685.66;5031408;28;20025;-84
2021/12/10 08:57:26;;;;;;;9.30;2.00;;;;;;;11.06;100.00;99712.50;5031060;28;20454;-79
2021/12/10 08:59:53;;;;;;;11.23;2.45;;;;;;;10.97;100.00;99683.91;5031091;28;20021;-81
2021/12/10 09:02:18;;;;;;;9.02;1.98;;;;;;;11.05;100.00;99695.28;5030023;28;20091;-82
2021/12/10 09:04:45;;;;;;;8.35;1.88;;;;;;;11.05;100.00;99677.19;5031362;28;20021;-81
2021/12/10 09:07:13;;;;;;;9.00;1.85;;;;;;;11.03;100.00;99698.66;5031763;28;20641;-78
2021/12/10 09:09:41;;;;;;;7.35;1.77;;;;;;;10.86;100.00;99673.31;5046621;28;20064;-77
2021/12/10 09:12:13;;;;;;;13.02;1.80;;;;;;;10.88;100.00;99676.81;5050182;28;20025;-80
2021/12/10 09:14:44;;;;;;;10.63;1.70;;;;;;;10.83;100.00;99674.13;5051050;28;20044;-77
2021/12/10 09:17:11;;;;;;;6.90;1.60;;;;;;;10.82;100.00;99662.06;5051527;28;20021;-77
2021/12/10 09:19:40;;;;;;;6.70;1.80;;;;;;;10.57;100.00;99610.72;5051581;28;20025;-79
2021/12/10 09:22:06;;;;;;;5.07;1.33;;;;;;;10.66;100.00;99640.16;5040239;28;20037;-78
2021/12/10 09:24:32;;;;;;;6.50;1.55;;;;;;;10.85;100.00;99692.22;5038222;28;20032;-79
2021/12/10 09:26:59;;;;;;;5.63;1.02;;;;;;;10.66;100.00;99659.97;5030422;28;20021;-80
2021/12/10 09:29:30;;;;;;;5.32;1.00;;;;;;;10.87;100.00;99674.22;5031769;28;20029;-80
2021/12/10 09:31:56;;;;;;;4.47;1.20;;;;;;;10.62;100.00;99628.03;5031802;28;20032;-79
2021/12/10 09:34:21;;;;;;;3.83;0.90;;;;;;;10.90;100.00;99676.84;5031467;28;20025;-77
2021/12/10 09:36:48;;;;;;;5.32;0.93;;;;;;;10.83;100.00;99650.91;5031751;28;20484;-78
2021/12/10 09:39:15;;;;;;;4.93;1.38;;;;;;;10.93;100.00;99630.44;5029445;28;20021;-76
2021/12/10 09:41:41;;;;;;;3.42;1.00;;;;;;;10.98;100.00;99614.22;5031532;28;20407;-78
2021/12/10 09:44:08;;;;;;;2.75;0.90;;;;;;;10.98;100.00;99618.50;5031399;28;20021;-78
2021/12/10 09:46:36;;;;;;;6.15;2.60;;;;;;;11.11;100.00;99633.41;5029423;28;20108;-78
2021/12/10 09:49:02;;;;;;;2.97;0.98;;;;;;;11.12;100.00;99645.50;5028779;28;20056;-80
2021/12/10 09:51:33;;;;;;;2.40;0.90;;;;;;;11.13;100.00;99633.47;5028862;28;20380;-79
2021/12/10 09:54:05;;;;;;;5.57;0.80;;;;;;;11.19;100.00;99643.03;5031572;28;20018;-77
2021/12/10 09:56:31;;;;;;;5.70;1.27;;;;;;;11.18;100.00;99637.00;5028689;28;20025;-76
2021/12/10 09:58:57;;;;;;;2.95;0.68;;;;;;;11.19;100.00;99643.03;5031283;28;20033;-76
2021/12/10 10:01:30;;;;;;;2.97;0.90;;;;;;;11.14;100.00;99633.50;5028986;28;20037;-76
2021/12/10 10:04:02;;;;;;;2.50;0.82;;;;;;;11.29;100.00;99621.72;5031501;28;20029;-76
2021/12/10 10:06:32;;;;;;;2.47;0.80;;;;;;;11.40;100.00;99624.53;4980845;28;20041;-75
2021/12/10 10:08:58;;;;;;;3.47;0.90;;;;;;;11.39;100.00;99631.41;5051071;28;20128;-76
2021/12/10 10:11:28;;;;;;;3.50;0.93;;;;;;;11.15;100.00;99616.25;5050732;28;20117;-76
2021/12/10 10:13:56;;;;;;;3.45;0.77;;;;;;;11.13;100.00;99618.81;5015856;28;20033;-75
2021/12/10 10:16:23;;;;;;;1.58;0.85;;;;;;;11.15;100.00;99639.50;5049531;28;20033;-76
2021/12/10 10:18:51;;;;;;;3.70;1.55;;;;;;;11.06;100.00;99623.84;5050336;28;20369;-78
2021/12/10 10:21:24;;;;;;;2.45;0.60;;;;;;;11.07;100.00;99641.94;5050945;28;20021;-80
2021/12/10 10:23:50;;;;;;;7.93;1.50;;;;;;;11.03;100.00;99631.50;5051057;28;20116;-78
2021/12/10 10:26:25;;;;;;;7.20;1.10;;;;;;;10.93;100.00;99625.25;5050965;28;20531;-74
2021/12/10 10:28:52;;;;;;;5.20;1.65;;;;;;;10.80;100.00;99588.88;5048249;28;20487;-76
2021/12/10 10:31:21;;;;;;;4.30;1.00;;;;;;;10.86;100.00;99607.91;5031274;28;20055;-79
2021/12/10 10:33:51;;;;;;;4.25;0.73;;;;;;;10.86;100.00;99623.41;5031336;28;20032;-76
2021/12/10 10:36:23;;;;;;;3.85;1.00;;;;;;;10.87;100.00;99635.47;5031147;28;20029;-73
2021/12/10 10:38:57;;;;;;;6.50;1.35;;;;;;;10.87;100.00;99636.34;5030983;28;20033;-74
2021/12/10 10:41:27;;;;;;;4.78;0.95;;;;;;;10.88;100.00;99624.28;5030963;28;20034;-77
2021/12/10 10:43:53;;;;;;;2.90;0.93;;;;;;;10.69;100.00;99587.75;5030732;28;20025;-74
2021/12/10 10:46:18;;;;;;;5.38;1.30;;;;;;;10.99;100.00;99636.63;5031112;28;20029;-74
2021/12/10 10:48:48;;;;;;;5.97;1.38;;;;;;;11.08;100.00;99638.53;5045943;28;20124;-76
2021/12/10 10:51:17;;;;;;;7.07;1.50;;;;;;;11.15;100.00;99635.25;5050534;28;20041;-76
2021/12/10 10:53:48;;;;;;;5.55;1.38;;;;;;;11.23;100.00;99637.13;5050728;28;20036;-76
2021/12/10 10:56:29;;;;;;;2.92;0.80;;;;;;;11.23;100.00;99624.19;5049504;28;20025;-77
2021/12/10 10:58:59;;;;;;;3.33;0.82;;;;;;;11.26;100.00;99624.25;5043364;28;20029;-76
2021/12/10 11:01:40;;;;;;;3.65;0.63;;;;;;;11.14;100.00;99594.75;5030265;28;20033;-78
2021/12/10 11:04:14;;;;;;;4.40;1.20;;;;;;;11.28;100.00;99620.00;5030533;28;20037;-76
2021/12/10 11:06:43;;;;;;;3.25;1.05;;;;;;;11.17;100.00;99597.38;5030815;28;20037;-78
2021/12/10 11:09:17;;;;;;;5.70;0.90;;;;;;;11.17;100.00;99610.28;5031162;28;20049;-74
2021/12/10 11:11:53;;;;;;;5.60;1.20;;;;;;;11.12;100.00;99603.31;5030311;28;20076;-76
2021/12/10 11:14:26;;;;;;;5.72;1.40;;;;;;;11.14;100.00;99602.50;5030670;28;20041;-76
2021/12/10 11:17:01;;;;;;;11.07;1.60;;;;;;;11.13;100.00;99598.16;5030388;28;20450;-77
2021/12/10 11:19:29;;;;;;;5.07;1.30;;;;;;;11.15;100.00;99598.19;5030604;28;20030;-76
2021/12/10 11:21:58;;;;;;;3.22;1.15;;;;;;;11.16;100.00;99587.91;5030298;28;20029;-77
2021/12/10 11:24:37;;;;;;;3.85;0.90;;;;;;;11.24;100.00;99567.38;5036356;28;20448;-75
2021/12/10 11:27:09;;;;;;;5.60;1.00;;;;;;;11.35;100.00;99593.41;5037239;28;20029;-74
2021/12/10 11:29:51;;;;;;;6.32;1.17;;;;;;;11.33;100.00;99597.69;5048857;28;20445;-77
2021/12/10 11:32:28;;;;;;;4.90;1.00;;;;;;;11.38;100.00;99603.81;5037453;28;20045;-74
2021/12/10 11:35:01;;;;;;;3.20;0.90;;;;;;;11.33;100.00;99600.28;5036871;28;20029;-73